sensor_id;sensor_type;location;lat;lon;timestamp;temperature;humidity
11399;DHT22;5755;48.116;11.608;2023-02-28T00:01:12;-1.80;89.60
11399;DHT22;5755;48.116;11.608;2023-02-28T00:03:41;-1.80;89.90
11399;DHT22;5755;48.116;11.608;2023-02-28T00:06:08;-1.80;90.20
11399;DHT22;5755;48.116;11.608;2023-02-28T00:08:36;-1.70;89.90
11399;DHT22;5755;48.116;11.608;2023-02-28T00:11:03;-1.70;89.30
11399;DHT22;5755;48.116;11.608;2023-02-28T00:13:30;-1.70;89.60
11399;DHT22;5755;48.116;11.608;2023-02-28T00:16:02;-1.70;89.80
11399;DHT22;5755;48.116;11.608;2023-02-28T00:18:29;-1.80;89.50
11399;DHT22;5755;48.116;11.608;2023-02-28T00:20:58;-1.80;90.30
11399;DHT22;5755;48.116;11.608;2023-02-28T00:23:25;-1.90;90.40
11399;DHT22;5755;48.116;11.608;2023-02-28T00:25:54;-1.90;90.20
11399;DHT22;5755;48.116;11.608;2023-02-28T00:28:21;-1.80;90.30
11399;DHT22;5755;48.116;11.608;2023-02-28T00:30:48;-1.80;90.40
11399;DHT22;5755;48.116;11.608;2023-02-28T00:33:15;-1.90;90.40
11399;DHT22;5755;48.116;11.608;2023-02-28T00:35:43;-1.90;90.40
11399;DHT22;5755;48.116;11.608;2023-02-28T00:38:14;-2.00;90.60
11399;DHT22;5755;48.116;11.608;2023-02-28T00:40:41;-2.00;90.90
11399;DHT22;5755;48.116;11.608;2023-02-28T00:43:08;-2.00;90.80
11399;DHT22;5755;48.116;11.608;2023-02-28T00:45:35;-2.00;90.90
11399;DHT22;5755;48.116;11.608;2023-02-28T00:48:02;-2.00;90.90
11399;DHT22;5755;48.116;11.608;2023-02-28T00:50:29;-1.90;90.80
11399;DHT22;5755;48.116;11.608;2023-02-28T00:52:56;-2.00;90.90
11399;DHT22;5755;48.116;11.608;2023-02-28T00:55:24;-2.10;90.90
11399;DHT22;5755;48.116;11.608;2023-02-28T00:57:51;-2.10;91.10
11399;DHT22;5755;48.116;11.608;2023-02-28T01:00:18;-2.10;91.00
11399;DHT22;5755;48.116;11.608;2023-02-28T01:02:45;-2.10;91.30
11399;DHT22;5755;48.116;11.608;2023-02-28T01:05:12;-2.10;91.40
11399;DHT22;5755;48.116;11.608;2023-02-28T01:07:39;-2.10;91.40
11399;DHT22;5755;48.116;11.608;2023-02-28T01:10:07;-2.20;91.40
11399;DHT22;5755;48.116;11.608;2023-02-28T01:12:36;-2.20;91.50
11399;DHT22;5755;48.116;11.608;2023-02-28T01:15:03;-2.20;91.60
11399;DHT22;5755;48.116;11.608;2023-02-28T01:17:30;-2.10;91.40
11399;DHT22;5755;48.116;11.608;2023-02-28T01:19:57;-2.20;91.40
11399;DHT22;5755;48.116;11.608;2023-02-28T01:22:24;-2.20;91.50
11399;DHT22;5755;48.116;11.608;2023-02-28T01:24:51;-2.20;91.40
11399;DHT22;5755;48.116;11.608;2023-02-28T01:27:18;-2.20;91.20
11399;DHT22;5755;48.116;11.608;2023-02-28T01:29:46;-2.20;91.20
11399;DHT22;5755;48.116;11.608;2023-02-28T01:32:13;-2.20;91.20
11399;DHT22;5755;48.116;11.608;2023-02-28T01:34:41;-2.20;91.40
11399;DHT22;5755;48.116;11.608;2023-02-28T01:37:08;-2.20;91.40
11399;DHT22;5755;48.116;11.608;2023-02-28T01:39:34;-2.30;91.70
11399;DHT22;5755;48.116;11.608;2023-02-28T01:42:02;-2.20;91.80
11399;DHT22;5755;48.116;11.608;2023-02-28T01:44:57;-2.30;91.90
11399;DHT22;5755;48.116;11.608;2023-02-28T01:47:26;-2.30;91.60
11399;DHT22;5755;48.116;11.608;2023-02-28T01:49:54;-2.30;91.90
11399;DHT22;5755;48.116;11.608;2023-02-28T01:52:22;-2.30;91.80
11399;DHT22;5755;48.116;11.608;2023-02-28T01:54:52;-2.30;91.80
11399;DHT22;5755;48.116;11.608;2023-02-28T01:57:24;-2.30;91.90
11399;DHT22;5755;48.116;11.608;2023-02-28T01:59:56;-2.30;91.90
11399;DHT22;5755;48.116;11.608;2023-02-28T02:02:25;-2.40;92.10
11399;DHT22;5755;48.116;11.608;2023-02-28T02:04:55;-2.40;92.10
11399;DHT22;5755;48.116;11.608;2023-02-28T02:07:24;-2.30;92.00
11399;DHT22;5755;48.116;11.608;2023-02-28T02:10:00;-2.30;91.90
11399;DHT22;5755;48.116;11.608;2023-02-28T02:12:43;-2.30;92.10
11399;DHT22;5755;48.116;11.608;2023-02-28T02:15:17;-2.40;92.10
11399;DHT22;5755;48.116;11.608;2023-02-28T02:17:50;-2.40;92.10
11399;DHT22;5755;48.116;11.608;2023-02-28T02:20:44;-2.30;91.90
11399;DHT22;5755;48.116;11.608;2023-02-28T02:23:38;-2.40;92.10
11399;DHT22;5755;48.116;11.608;2023-02-28T02:26:47;-2.40;92.30
11399;DHT22;5755;48.116;11.608;2023-02-28T02:29:42;-2.40;92.20
11399;DHT22;5755;48.116;11.608;2023-02-28T02:32:39;-2.40;92.40
11399;DHT22;5755;48.116;11.608;2023-02-28T02:35:14;-2.50;92.40
11399;DHT22;5755;48.116;11.608;2023-02-28T02:37:47;-2.50;92.50
11399;DHT22;5755;48.116;11.608;2023-02-28T02:40:18;-2.50;92.60
11399;DHT22;5755;48.116;11.608;2023-02-28T02:42:51;-2.50;92.60
11399;DHT22;5755;48.116;11.608;2023-02-28T02:45:24;-2.40;92.60
11399;DHT22;5755;48.116;11.608;2023-02-28T02:47:53;-2.40;92.80
11399;DHT22;5755;48.116;11.608;2023-02-28T02:50:29;-2.40;92.60
11399;DHT22;5755;48.116;11.608;2023-02-28T02:53:00;-2.50;92.80
11399;DHT22;5755;48.116;11.608;2023-02-28T02:55:27;-2.50;92.80
11399;DHT22;5755;48.116;11.608;2023-02-28T02:57:57;-2.50;92.70
11399;DHT22;5755;48.116;11.608;2023-02-28T03:00:29;-2.50;92.70
11399;DHT22;5755;48.116;11.608;2023-02-28T03:02:59;-2.50;92.90
11399;DHT22;5755;48.116;11.608;2023-02-28T03:05:32;-2.50;93.10
11399;DHT22;5755;48.116;11.608;2023-02-28T03:08:03;-2.60;93.40
11399;DHT22;5755;48.116;11.608;2023-02-28T03:10:37;-2.60;92.90
11399;DHT22;5755;48.116;11.608;2023-02-28T03:13:21;-2.60;93.10
11399;DHT22;5755;48.116;11.608;2023-02-28T03:16:01;-2.60;93.50
11399;DHT22;5755;48.116;11.608;2023-02-28T03:18:38;-2.60;93.50
11399;DHT22;5755;48.116;11.608;2023-02-28T03:21:16;-2.60;93.50
11399;DHT22;5755;48.116;11.608;2023-02-28T03:23:51;-2.60;93.50
11399;DHT22;5755;48.116;11.608;2023-02-28T03:26:23;-2.60;93.50
11399;DHT22;5755;48.116;11.608;2023-02-28T03:28:56;-2.60;93.50
11399;DHT22;5755;48.116;11.608;2023-02-28T03:31:29;-2.70;93.50
11399;DHT22;5755;48.116;11.608;2023-02-28T03:34:01;-2.70;93.50
11399;DHT22;5755;48.116;11.608;2023-02-28T03:36:35;-2.70;93.50
11399;DHT22;5755;48.116;11.608;2023-02-28T03:39:11;-2.70;93.50
11399;DHT22;5755;48.116;11.608;2023-02-28T03:41:42;-2.70;93.50
11399;DHT22;5755;48.116;11.608;2023-02-28T03:44:16;-2.70;93.50
11399;DHT22;5755;48.116;11.608;2023-02-28T03:46:48;-2.70;93.50
11399;DHT22;5755;48.116;11.608;2023-02-28T03:49:22;-2.70;93.60
11399;DHT22;5755;48.116;11.608;2023-02-28T03:51:51;-2.70;93.90
11399;DHT22;5755;48.116;11.608;2023-02-28T03:54:21;-2.70;93.70
11399;DHT22;5755;48.116;11.608;2023-02-28T03:56:52;-2.70;93.80
11399;DHT22;5755;48.116;11.608;2023-02-28T03:59:25;-2.70;94.00
11399;DHT22;5755;48.116;11.608;2023-02-28T04:01:52;-2.70;93.90
11399;DHT22;5755;48.116;11.608;2023-02-28T04:04:20;-2.70;94.00
11399;DHT22;5755;48.116;11.608;2023-02-28T04:06:51;-2.70;94.20
11399;DHT22;5755;48.116;11.608;2023-02-28T04:09:18;-2.70;94.20
11399;DHT22;5755;48.116;11.608;2023-02-28T04:11:48;-2.70;94.10
11399;DHT22;5755;48.116;11.608;2023-02-28T04:14:16;-2.80;94.30
11399;DHT22;5755;48.116;11.608;2023-02-28T04:16:44;-2.80;94.50
11399;DHT22;5755;48.116;11.608;2023-02-28T04:19:13;-2.70;94.50
11399;DHT22;5755;48.116;11.608;2023-02-28T04:21:41;-2.80;94.50
11399;DHT22;5755;48.116;11.608;2023-02-28T04:24:12;-2.80;94.50
11399;DHT22;5755;48.116;11.608;2023-02-28T04:26:41;-2.80;94.70
11399;DHT22;5755;48.116;11.608;2023-02-28T04:29:10;-2.80;94.60
11399;DHT22;5755;48.116;11.608;2023-02-28T04:31:38;-2.80;94.80
11399;DHT22;5755;48.116;11.608;2023-02-28T04:34:05;-2.80;94.90
11399;DHT22;5755;48.116;11.608;2023-02-28T04:36:33;-2.80;94.90
11399;DHT22;5755;48.116;11.608;2023-02-28T04:39:00;-2.80;95.10
11399;DHT22;5755;48.116;11.608;2023-02-28T04:41:28;-2.60;95.20
11399;DHT22;5755;48.116;11.608;2023-02-28T04:43:55;-2.50;94.90
11399;DHT22;5755;48.116;11.608;2023-02-28T04:46:22;-2.50;94.90
11399;DHT22;5755;48.116;11.608;2023-02-28T04:48:49;-2.40;94.50
11399;DHT22;5755;48.116;11.608;2023-02-28T04:51:18;-2.40;94.80
11399;DHT22;5755;48.116;11.608;2023-02-28T04:53:45;-2.40;94.40
11399;DHT22;5755;48.116;11.608;2023-02-28T04:56:14;-2.30;94.50
11399;DHT22;5755;48.116;11.608;2023-02-28T04:58:42;-2.30;94.30
11399;DHT22;5755;48.116;11.608;2023-02-28T05:01:18;-2.30;94.30
11399;DHT22;5755;48.116;11.608;2023-02-28T05:03:46;-2.30;94.40
11399;DHT22;5755;48.116;11.608;2023-02-28T05:06:13;-2.30;94.20
11399;DHT22;5755;48.116;11.608;2023-02-28T05:08:40;-2.20;94.30
11399;DHT22;5755;48.116;11.608;2023-02-28T05:11:14;-2.20;94.30
11399;DHT22;5755;48.116;11.608;2023-02-28T05:13:42;-2.10;94.40
11399;DHT22;5755;48.116;11.608;2023-02-28T05:16:09;-2.10;94.20
11399;DHT22;5755;48.116;11.608;2023-02-28T05:18:36;-2.10;94.10
11399;DHT22;5755;48.116;11.608;2023-02-28T05:21:03;-2.10;94.40
11399;DHT22;5755;48.116;11.608;2023-02-28T05:23:29;-2.10;94.30
11399;DHT22;5755;48.116;11.608;2023-02-28T05:25:57;-2.00;94.30
11399;DHT22;5755;48.116;11.608;2023-02-28T05:28:23;-2.00;94.20
11399;DHT22;5755;48.116;11.608;2023-02-28T05:30:52;-2.00;94.20
11399;DHT22;5755;48.116;11.608;2023-02-28T05:33:18;-1.90;94.20
11399;DHT22;5755;48.116;11.608;2023-02-28T05:35:45;-1.80;93.80
11399;DHT22;5755;48.116;11.608;2023-02-28T05:38:12;-1.80;93.70
11399;DHT22;5755;48.116;11.608;2023-02-28T05:40:39;-1.80;93.60
11399;DHT22;5755;48.116;11.608;2023-02-28T05:43:09;-1.80;93.60
11399;DHT22;5755;48.116;11.608;2023-02-28T05:45:37;-1.70;93.70
11399;DHT22;5755;48.116;11.608;2023-02-28T05:48:05;-1.80;93.60
11399;DHT22;5755;48.116;11.608;2023-02-28T05:50:32;-1.70;93.70
11399;DHT22;5755;48.116;11.608;2023-02-28T05:52:59;-1.70;93.70
11399;DHT22;5755;48.116;11.608;2023-02-28T05:55:26;-1.70;93.70
11399;DHT22;5755;48.116;11.608;2023-02-28T05:57:53;-1.60;93.40
11399;DHT22;5755;48.116;11.608;2023-02-28T06:00:20;-1.60;93.20
11399;DHT22;5755;48.116;11.608;2023-02-28T06:02:47;-1.70;93.40
11399;DHT22;5755;48.116;11.608;2023-02-28T06:05:17;-1.70;93.30
11399;DHT22;5755;48.116;11.608;2023-02-28T06:07:44;-1.60;93.10
11399;DHT22;5755;48.116;11.608;2023-02-28T06:10:11;-1.60;93.70
11399;DHT22;5755;48.116;11.608;2023-02-28T06:12:38;-1.50;93.00
11399;DHT22;5755;48.116;11.608;2023-02-28T06:15:07;-1.20;93.40
11399;DHT22;5755;48.116;11.608;2023-02-28T06:17:34;-0.90;92.00
11399;DHT22;5755;48.116;11.608;2023-02-28T06:20:01;-1.00;91.90
11399;DHT22;5755;48.116;11.608;2023-02-28T06:22:29;-1.10;91.70
11399;DHT22;5755;48.116;11.608;2023-02-28T06:24:57;-1.20;91.40
11399;DHT22;5755;48.116;11.608;2023-02-28T06:27:23;-1.50;92.50
11399;DHT22;5755;48.116;11.608;2023-02-28T06:29:53;-1.40;92.60
11399;DHT22;5755;48.116;11.608;2023-02-28T06:32:20;-1.40;92.40
11399;DHT22;5755;48.116;11.608;2023-02-28T06:34:47;-1.40;92.20
11399;DHT22;5755;48.116;11.608;2023-02-28T06:37:14;-1.40;92.00
11399;DHT22;5755;48.116;11.608;2023-02-28T06:39:42;-1.40;92.10
11399;DHT22;5755;48.116;11.608;2023-02-28T06:42:09;-1.40;92.10
11399;DHT22;5755;48.116;11.608;2023-02-28T06:44:36;-1.40;92.20
11399;DHT22;5755;48.116;11.608;2023-02-28T06:47:06;-1.50;92.40
11399;DHT22;5755;48.116;11.608;2023-02-28T06:49:35;-1.30;93.70
11399;DHT22;5755;48.116;11.608;2023-02-28T06:52:02;-1.20;92.70
11399;DHT22;5755;48.116;11.608;2023-02-28T06:54:29;-1.30;92.20
11399;DHT22;5755;48.116;11.608;2023-02-28T06:56:57;-1.20;91.90
11399;DHT22;5755;48.116;11.608;2023-02-28T06:59:24;-1.20;91.90
11399;DHT22;5755;48.116;11.608;2023-02-28T07:01:51;-1.20;92.20
11399;DHT22;5755;48.116;11.608;2023-02-28T07:04:18;-1.30;91.80
11399;DHT22;5755;48.116;11.608;2023-02-28T07:06:45;-1.20;91.70
11399;DHT22;5755;48.116;11.608;2023-02-28T07:09:12;-1.20;91.70
11399;DHT22;5755;48.116;11.608;2023-02-28T07:11:39;-1.30;91.70
11399;DHT22;5755;48.116;11.608;2023-02-28T07:14:09;-1.30;92.10
11399;DHT22;5755;48.116;11.608;2023-02-28T07:16:36;-1.20;91.90
11399;DHT22;5755;48.116;11.608;2023-02-28T07:19:03;-1.30;92.00
11399;DHT22;5755;48.116;11.608;2023-02-28T07:21:30;-1.40;92.20
11399;DHT22;5755;48.116;11.608;2023-02-28T07:23:57;-1.60;92.40
11399;DHT22;5755;48.116;11.608;2023-02-28T07:26:24;-1.50;92.60
11399;DHT22;5755;48.116;11.608;2023-02-28T07:28:51;-1.40;92.40
11399;DHT22;5755;48.116;11.608;2023-02-28T07:31:20;-1.40;92.10
11399;DHT22;5755;48.116;11.608;2023-02-28T07:33:47;-1.30;91.90
11399;DHT22;5755;48.116;11.608;2023-02-28T07:36:16;-1.40;92.20
11399;DHT22;5755;48.116;11.608;2023-02-28T07:38:45;-1.30;92.10
11399;DHT22;5755;48.116;11.608;2023-02-28T07:41:14;-1.20;92.00
11399;DHT22;5755;48.116;11.608;2023-02-28T07:43:40;-1.20;91.60
11399;DHT22;5755;48.116;11.608;2023-02-28T07:46:09;-1.10;91.60
11399;DHT22;5755;48.116;11.608;2023-02-28T07:48:38;-1.10;91.60
11399;DHT22;5755;48.116;11.608;2023-02-28T07:51:05;-1.20;91.60
11399;DHT22;5755;48.116;11.608;2023-02-28T07:53:31;-1.20;91.70
11399;DHT22;5755;48.116;11.608;2023-02-28T07:56:00;-1.10;91.70
11399;DHT22;5755;48.116;11.608;2023-02-28T07:58:27;-1.00;91.70
11399;DHT22;5755;48.116;11.608;2023-02-28T08:00:55;-0.90;91.50
11399;DHT22;5755;48.116;11.608;2023-02-28T08:03:23;-0.90;90.90
11399;DHT22;5755;48.116;11.608;2023-02-28T08:05:51;-0.80;91.20
11399;DHT22;5755;48.116;11.608;2023-02-28T08:08:19;-0.70;91.00
11399;DHT22;5755;48.116;11.608;2023-02-28T08:10:45;-0.70;91.20
11399;DHT22;5755;48.116;11.608;2023-02-28T08:13:12;-0.70;91.10
11399;DHT22;5755;48.116;11.608;2023-02-28T08:15:40;-0.60;90.80
11399;DHT22;5755;48.116;11.608;2023-02-28T08:18:07;-0.70;91.10
11399;DHT22;5755;48.116;11.608;2023-02-28T08:20:34;-0.70;91.20
11399;DHT22;5755;48.116;11.608;2023-02-28T08:23:02;-0.60;90.80
11399;DHT22;5755;48.116;11.608;2023-02-28T08:25:29;-0.70;90.80
11399;DHT22;5755;48.116;11.608;2023-02-28T08:27:56;-0.60;91.20
11399;DHT22;5755;48.116;11.608;2023-02-28T08:30:23;-0.60;91.20
11399;DHT22;5755;48.116;11.608;2023-02-28T08:32:50;-0.60;90.40
11399;DHT22;5755;48.116;11.608;2023-02-28T08:35:17;-0.60;90.70
11399;DHT22;5755;48.116;11.608;2023-02-28T08:37:44;-0.60;90.70
11399;DHT22;5755;48.116;11.608;2023-02-28T08:40:12;-0.50;90.70
11399;DHT22;5755;48.116;11.608;2023-02-28T08:42:43;-0.40;90.50
11399;DHT22;5755;48.116;11.608;2023-02-28T08:45:11;-0.30;89.40
11399;DHT22;5755;48.116;11.608;2023-02-28T08:47:38;-0.50;90.20
11399;DHT22;5755;48.116;11.608;2023-02-28T08:50:06;-0.40;89.40
11399;DHT22;5755;48.116;11.608;2023-02-28T08:52:33;-0.30;90.00
11399;DHT22;5755;48.116;11.608;2023-02-28T08:55:00;-0.10;89.00
11399;DHT22;5755;48.116;11.608;2023-02-28T08:57:28;-0.20;88.60
11399;DHT22;5755;48.116;11.608;2023-02-28T08:59:55;-0.50;90.10
11399;DHT22;5755;48.116;11.608;2023-02-28T09:02:22;-0.40;90.40
11399;DHT22;5755;48.116;11.608;2023-02-28T09:04:49;-0.40;90.10
11399;DHT22;5755;48.116;11.608;2023-02-28T09:07:16;-0.20;87.10
11399;DHT22;5755;48.116;11.608;2023-02-28T09:09:43;0.00;85.80
11399;DHT22;5755;48.116;11.608;2023-02-28T09:12:20;0.00;85.80
11399;DHT22;5755;48.116;11.608;2023-02-28T09:14:48;0.10;85.90
11399;DHT22;5755;48.116;11.608;2023-02-28T09:17:15;-0.10;85.80
11399;DHT22;5755;48.116;11.608;2023-02-28T09:19:43;0.00;85.80
11399;DHT22;5755;48.116;11.608;2023-02-28T09:22:10;-0.20;85.80
11399;DHT22;5755;48.116;11.608;2023-02-28T09:24:38;-0.10;86.10
11399;DHT22;5755;48.116;11.608;2023-02-28T09:27:05;0.00;85.80
11399;DHT22;5755;48.116;11.608;2023-02-28T09:29:33;-0.20;86.70
11399;DHT22;5755;48.116;11.608;2023-02-28T09:32:02;0.00;86.90
11399;DHT22;5755;48.116;11.608;2023-02-28T09:34:31;0.20;86.20
11399;DHT22;5755;48.116;11.608;2023-02-28T09:36:57;0.20;85.90
11399;DHT22;5755;48.116;11.608;2023-02-28T09:39:24;0.20;86.00
11399;DHT22;5755;48.116;11.608;2023-02-28T09:41:52;0.10;85.90
11399;DHT22;5755;48.116;11.608;2023-02-28T09:44:24;0.30;86.00
11399;DHT22;5755;48.116;11.608;2023-02-28T09:46:57;0.40;86.00
11399;DHT22;5755;48.116;11.608;2023-02-28T09:49:33;0.50;86.10
11399;DHT22;5755;48.116;11.608;2023-02-28T09:52:03;0.80;81.90
11399;DHT22;5755;48.116;11.608;2023-02-28T09:54:35;0.90;80.40
11399;DHT22;5755;48.116;11.608;2023-02-28T09:57:07;0.90;78.70
11399;DHT22;5755;48.116;11.608;2023-02-28T09:59:44;0.80;80.10
11399;DHT22;5755;48.116;11.608;2023-02-28T10:02:33;0.80;82.00
11399;DHT22;5755;48.116;11.608;2023-02-28T10:05:09;0.90;79.70
11399;DHT22;5755;48.116;11.608;2023-02-28T10:07:52;1.00;79.50
11399;DHT22;5755;48.116;11.608;2023-02-28T10:10:27;1.10;78.00
11399;DHT22;5755;48.116;11.608;2023-02-28T10:12:58;1.00;76.20
11399;DHT22;5755;48.116;11.608;2023-02-28T10:15:30;0.50;81.20
11399;DHT22;5755;48.116;11.608;2023-02-28T10:18:00;0.70;78.60
11399;DHT22;5755;48.116;11.608;2023-02-28T10:20:32;0.80;79.30
11399;DHT22;5755;48.116;11.608;2023-02-28T10:23:07;0.70;80.60
11399;DHT22;5755;48.116;11.608;2023-02-28T10:25:37;0.90;79.30
11399;DHT22;5755;48.116;11.608;2023-02-28T10:28:10;1.00;78.70
11399;DHT22;5755;48.116;11.608;2023-02-28T10:30:39;1.10;77.60
11399;DHT22;5755;48.116;11.608;2023-02-28T10:33:16;1.60;71.20
11399;DHT22;5755;48.116;11.608;2023-02-28T10:35:45;1.60;67.50
11399;DHT22;5755;48.116;11.608;2023-02-28T10:38:16;2.10;66.70
11399;DHT22;5755;48.116;11.608;2023-02-28T10:40:43;2.50;58.10
11399;DHT22;5755;48.116;11.608;2023-02-28T10:43:20;2.90;53.00
11399;DHT22;5755;48.116;11.608;2023-02-28T10:45:59;3.30;48.70
11399;DHT22;5755;48.116;11.608;2023-02-28T10:48:33;3.50;43.00
11399;DHT22;5755;48.116;11.608;2023-02-28T10:51:04;3.40;43.90
11399;DHT22;5755;48.116;11.608;2023-02-28T10:53:34;3.50;43.00
11399;DHT22;5755;48.116;11.608;2023-02-28T10:56:04;3.40;43.00
11399;DHT22;5755;48.116;11.608;2023-02-28T10:58:46;3.70;41.60
11399;DHT22;5755;48.116;11.608;2023-02-28T11:01:15;3.60;43.20
11399;DHT22;5755;48.116;11.608;2023-02-28T11:03:42;3.50;43.00
11399;DHT22;5755;48.116;11.608;2023-02-28T11:06:15;3.20;42.80
11399;DHT22;5755;48.116;11.608;2023-02-28T11:08:51;2.90;45.30
11399;DHT22;5755;48.116;11.608;2023-02-28T11:11:20;2.90;44.60
11399;DHT22;5755;48.116;11.608;2023-02-28T11:13:51;2.80;44.80
11399;DHT22;5755;48.116;11.608;2023-02-28T11:16:20;2.80;46.20
11399;DHT22;5755;48.116;11.608;2023-02-28T11:18:49;2.50;48.40
11399;DHT22;5755;48.116;11.608;2023-02-28T11:21:21;2.50;51.50
11399;DHT22;5755;48.116;11.608;2023-02-28T11:23:51;2.40;51.30
11399;DHT22;5755;48.116;11.608;2023-02-28T11:26:40;2.30;54.60
11399;DHT22;5755;48.116;11.608;2023-02-28T11:29:17;2.40;55.90
11399;DHT22;5755;48.116;11.608;2023-02-28T11:32:01;2.40;57.60
11399;DHT22;5755;48.116;11.608;2023-02-28T11:34:29;2.40;56.50
11399;DHT22;5755;48.116;11.608;2023-02-28T11:36:59;2.40;56.20
11399;DHT22;5755;48.116;11.608;2023-02-28T11:39:31;2.80;55.50
11399;DHT22;5755;48.116;11.608;2023-02-28T11:42:32;3.00;50.80
11399;DHT22;5755;48.116;11.608;2023-02-28T11:45:11;3.10;51.20
11399;DHT22;5755;48.116;11.608;2023-02-28T11:47:48;3.20;49.40
11399;DHT22;5755;48.116;11.608;2023-02-28T11:50:57;3.30;47.80
11399;DHT22;5755;48.116;11.608;2023-02-28T11:53:46;3.30;47.40
11399;DHT22;5755;48.116;11.608;2023-02-28T11:56:21;3.20;46.20
11399;DHT22;5755;48.116;11.608;2023-02-28T11:58:54;3.10;50.50
11399;DHT22;5755;48.116;11.608;2023-02-28T12:01:36;3.10;51.50
11399;DHT22;5755;48.116;11.608;2023-02-28T12:04:17;3.40;48.90
11399;DHT22;5755;48.116;11.608;2023-02-28T12:06:52;3.40;48.40
11399;DHT22;5755;48.116;11.608;2023-02-28T12:09:44;3.70;43.20
11399;DHT22;5755;48.116;11.608;2023-02-28T12:12:22;3.80;42.30
11399;DHT22;5755;48.116;11.608;2023-02-28T12:15:03;4.10;42.70
11399;DHT22;5755;48.116;11.608;2023-02-28T12:17:44;4.20;39.70
11399;DHT22;5755;48.116;11.608;2023-02-28T12:20:21;4.40;40.90
11399;DHT22;5755;48.116;11.608;2023-02-28T12:22:56;4.40;40.50
11399;DHT22;5755;48.116;11.608;2023-02-28T12:26:00;4.60;37.70
11399;DHT22;5755;48.116;11.608;2023-02-28T12:28:33;4.00;36.80
11399;DHT22;5755;48.116;11.608;2023-02-28T12:31:03;4.10;39.00
11399;DHT22;5755;48.116;11.608;2023-02-28T12:33:34;4.00;38.10
11399;DHT22;5755;48.116;11.608;2023-02-28T12:36:05;4.00;38.80
11399;DHT22;5755;48.116;11.608;2023-02-28T12:38:39;4.00;40.70
11399;DHT22;5755;48.116;11.608;2023-02-28T12:41:13;4.00;38.70
11399;DHT22;5755;48.116;11.608;2023-02-28T12:43:43;4.10;39.80
11399;DHT22;5755;48.116;11.608;2023-02-28T12:46:15;4.30;38.70
11399;DHT22;5755;48.116;11.608;2023-02-28T12:48:46;4.30;35.90
11399;DHT22;5755;48.116;11.608;2023-02-28T12:51:15;4.40;38.00
11399;DHT22;5755;48.116;11.608;2023-02-28T12:53:57;4.50;35.60
11399;DHT22;5755;48.116;11.608;2023-02-28T12:56:36;4.30;35.80
11399;DHT22;5755;48.116;11.608;2023-02-28T12:59:14;3.80;38.30
11399;DHT22;5755;48.116;11.608;2023-02-28T13:01:56;3.70;42.50
11399;DHT22;5755;48.116;11.608;2023-02-28T13:04:54;3.40;43.00
11399;DHT22;5755;48.116;11.608;2023-02-28T13:07:51;3.70;43.20
11399;DHT22;5755;48.116;11.608;2023-02-28T13:10:18;3.70;43.20
11399;DHT22;5755;48.116;11.608;2023-02-28T13:12:51;3.80;42.10
11399;DHT22;5755;48.116;11.608;2023-02-28T13:15:22;4.10;40.40
11399;DHT22;5755;48.116;11.608;2023-02-28T13:17:51;4.30;36.10
11399;DHT22;5755;48.116;11.608;2023-02-28T13:20:20;4.30;36.00
11399;DHT22;5755;48.116;11.608;2023-02-28T13:22:49;4.20;36.10
11399;DHT22;5755;48.116;11.608;2023-02-28T13:25:51;4.20;38.10
11399;DHT22;5755;48.116;11.608;2023-02-28T13:34:46;4.10;40.20
11399;DHT22;5755;48.116;11.608;2023-02-28T13:37:41;3.90;39.80
11399;DHT22;5755;48.116;11.608;2023-02-28T13:40:31;3.80;41.10
11399;DHT22;5755;48.116;11.608;2023-02-28T13:43:02;3.70;43.20
11399;DHT22;5755;48.116;11.608;2023-02-28T13:45:30;3.40;43.00
11399;DHT22;5755;48.116;11.608;2023-02-28T13:48:04;3.50;44.00
11399;DHT22;5755;48.116;11.608;2023-02-28T13:50:34;3.70;43.20
11399;DHT22;5755;48.116;11.608;2023-02-28T13:53:39;3.80;42.30
11399;DHT22;5755;48.116;11.608;2023-02-28T13:56:22;3.90;42.40
11399;DHT22;5755;48.116;11.608;2023-02-28T13:58:54;4.00;40.10
11399;DHT22;5755;48.116;11.608;2023-02-28T14:01:37;4.10;41.10
11399;DHT22;5755;48.116;11.608;2023-02-28T14:07:18;3.60;42.10
11399;DHT22;5755;48.116;11.608;2023-02-28T14:09:51;3.20;45.70
11399;DHT22;5755;48.116;11.608;2023-02-28T14:15:44;3.20;50.30
11399;DHT22;5755;48.116;11.608;2023-02-28T14:18:22;3.40;49.00
11399;DHT22;5755;48.116;11.608;2023-02-28T14:20:53;3.40;47.60
11399;DHT22;5755;48.116;11.608;2023-02-28T14:26:25;3.50;48.80
11399;DHT22;5755;48.116;11.608;2023-02-28T14:29:07;3.50;47.00
11399;DHT22;5755;48.116;11.608;2023-02-28T14:31:43;3.70;44.60
11399;DHT22;5755;48.116;11.608;2023-02-28T14:34:24;3.60;44.80
11399;DHT22;5755;48.116;11.608;2023-02-28T14:36:53;3.60;45.10
11399;DHT22;5755;48.116;11.608;2023-02-28T14:39:24;3.20;48.60
11399;DHT22;5755;48.116;11.608;2023-02-28T14:41:51;3.30;48.40
11399;DHT22;5755;48.116;11.608;2023-02-28T14:44:20;3.30;47.70
11399;DHT22;5755;48.116;11.608;2023-02-28T14:46:49;3.20;46.30
11399;DHT22;5755;48.116;11.608;2023-02-28T14:49:19;3.30;46.00
11399;DHT22;5755;48.116;11.608;2023-02-28T14:51:48;3.20;46.60
11399;DHT22;5755;48.116;11.608;2023-02-28T14:54:16;3.20;47.60
11399;DHT22;5755;48.116;11.608;2023-02-28T14:56:51;3.30;47.30
11399;DHT22;5755;48.116;11.608;2023-02-28T14:59:28;3.30;47.80
11399;DHT22;5755;48.116;11.608;2023-02-28T15:02:17;3.30;47.80
11399;DHT22;5755;48.116;11.608;2023-02-28T15:04:53;3.30;48.60
11399;DHT22;5755;48.116;11.608;2023-02-28T15:07:20;3.30;48.70
11399;DHT22;5755;48.116;11.608;2023-02-28T15:10:07;3.30;47.50
11399;DHT22;5755;48.116;11.608;2023-02-28T15:12:37;3.30;48.80
11399;DHT22;5755;48.116;11.608;2023-02-28T15:15:05;3.40;46.70
11399;DHT22;5755;48.116;11.608;2023-02-28T15:17:34;3.40;47.50
11399;DHT22;5755;48.116;11.608;2023-02-28T15:20:01;3.40;46.80
11399;DHT22;5755;48.116;11.608;2023-02-28T15:22:31;3.40;47.30
11399;DHT22;5755;48.116;11.608;2023-02-28T15:25:03;3.30;48.10
11399;DHT22;5755;48.116;11.608;2023-02-28T15:27:32;3.30;48.20
11399;DHT22;5755;48.116;11.608;2023-02-28T15:30:06;3.30;49.20
11399;DHT22;5755;48.116;11.608;2023-02-28T15:32:35;3.20;48.70
11399;DHT22;5755;48.116;11.608;2023-02-28T15:35:18;3.10;49.90
11399;DHT22;5755;48.116;11.608;2023-02-28T15:37:47;3.10;50.00
11399;DHT22;5755;48.116;11.608;2023-02-28T15:40:18;3.10;51.90
11399;DHT22;5755;48.116;11.608;2023-02-28T15:42:58;3.10;53.20
11399;DHT22;5755;48.116;11.608;2023-02-28T15:45:33;3.10;52.10
11399;DHT22;5755;48.116;11.608;2023-02-28T15:48:04;3.10;52.30
11399;DHT22;5755;48.116;11.608;2023-02-28T15:50:31;3.10;52.40
11399;DHT22;5755;48.116;11.608;2023-02-28T15:52:58;3.10;52.70
11399;DHT22;5755;48.116;11.608;2023-02-28T15:55:27;3.10;54.60
11399;DHT22;5755;48.116;11.608;2023-02-28T15:57:59;3.00;54.80
11399;DHT22;5755;48.116;11.608;2023-02-28T16:00:32;2.90;55.50
11399;DHT22;5755;48.116;11.608;2023-02-28T16:02:59;3.00;55.80
11399;DHT22;5755;48.116;11.608;2023-02-28T16:05:29;3.00;57.50
11399;DHT22;5755;48.116;11.608;2023-02-28T16:07:59;2.90;58.20
11399;DHT22;5755;48.116;11.608;2023-02-28T16:10:28;3.00;57.50
11399;DHT22;5755;48.116;11.608;2023-02-28T16:12:56;3.00;58.50
11399;DHT22;5755;48.116;11.608;2023-02-28T16:15:26;3.00;58.00
11399;DHT22;5755;48.116;11.608;2023-02-28T16:17:56;3.00;58.90
11399;DHT22;5755;48.116;11.608;2023-02-28T16:20:27;3.00;59.80